createdAt,value
2023-05-01T00:01:54.127Z,98485.69
2023-05-01T00:04:23.933Z,98488.00
2023-05-01T00:06:52.432Z,98492.00
2023-05-01T00:09:20.890Z,98489.91
2023-05-01T00:11:49.196Z,98491.75
2023-05-01T00:14:19.524Z,98490.13
2023-05-01T00:16:48.029Z,98485.97
2023-05-01T00:19:18.923Z,98486.47
2023-05-01T00:21:51.551Z,98483.16
2023-05-01T00:24:19.805Z,98473.13
2023-05-01T00:26:48.253Z,98477.22
2023-05-01T00:29:16.985Z,98470.03
2023-05-01T00:31:45.761Z,98476.56
2023-05-01T00:34:14.132Z,98473.59
2023-05-01T00:36:42.626Z,98488.50
2023-05-01T00:39:12.288Z,98491.00
2023-05-01T00:41:40.622Z,98493.47
2023-05-01T00:44:08.942Z,98492.72
2023-05-01T00:46:37.526Z,98490.56
2023-05-01T00:49:08.017Z,98487.56
2023-05-01T00:51:36.926Z,98490.25
2023-05-01T00:54:06.858Z,98496.00
2023-05-01T00:56:36.706Z,98483.81
2023-05-01T00:59:05.556Z,98480.28
2023-05-01T01:01:34.646Z,98474.50
2023-05-01T01:04:03.683Z,98467.91
2023-05-01T01:06:42.199Z,98462.59
2023-05-01T01:09:24.634Z,98459.75
2023-05-01T01:12:04.240Z,98438.75
2023-05-01T01:14:37.349Z,98446.00
2023-05-01T01:17:13.011Z,98442.75
2023-05-01T01:20:15.199Z,98429.53
2023-05-01T01:22:49.115Z,98418.50
2023-05-01T01:25:52.155Z,98425.31
2023-05-01T01:28:46.835Z,98434.63
2023-05-01T01:31:19.341Z,98428.63
2023-05-01T01:34:00.921Z,98428.19
2023-05-01T01:36:50.212Z,98421.78
2023-05-01T01:39:30.171Z,98423.03
2023-05-01T01:42:01.040Z,98418.34
2023-05-01T01:44:35.422Z,98414.34
2023-05-01T01:47:08.105Z,98420.03
2023-05-01T01:49:43.555Z,98409.34
2023-05-01T01:52:14.915Z,98406.94
2023-05-01T01:54:52.066Z,98412.31
2023-05-01T01:57:23.550Z,98405.00
2023-05-01T01:59:52.562Z,98407.00
2023-05-01T02:02:24.521Z,98414.81
2023-05-01T02:04:57.028Z,98394.91
2023-05-01T02:07:26.838Z,98410.94
2023-05-01T02:09:57.245Z,98408.66
2023-05-01T02:12:27.774Z,98395.25
2023-05-01T02:14:57.346Z,98400.78
2023-05-01T02:17:27.334Z,98398.47
2023-05-01T02:19:58.543Z,98388.97
2023-05-01T02:22:28.662Z,98387.53
2023-05-01T02:25:01.213Z,98389.78
2023-05-01T02:27:35.848Z,98389.22
2023-05-01T02:30:07.843Z,98387.34
2023-05-01T02:32:36.592Z,98390.81
2023-05-01T02:35:06.955Z,98392.69
2023-05-01T02:37:35.384Z,98387.78
2023-05-01T02:40:05.742Z,98380.25
2023-05-01T02:42:35.494Z,98384.16
2023-05-01T02:45:06.683Z,98384.88
2023-05-01T02:47:40.347Z,98376.34
2023-05-01T02:50:12.185Z,98386.56
2023-05-01T02:52:41.024Z,98391.19
2023-05-01T02:55:29.278Z,98378.97
2023-05-01T02:57:59.396Z,98380.66
2023-05-01T03:00:28.148Z,98392.75
2023-05-01T03:02:56.601Z,98381.19
2023-05-01T03:05:26.811Z,98387.09
2023-05-01T03:07:55.136Z,98377.81
2023-05-01T03:10:23.835Z,98380.13
2023-05-01T03:12:52.165Z,98388.22
2023-05-01T03:15:20.465Z,98385.44
2023-05-01T03:17:48.848Z,98382.94
2023-05-01T03:20:17.590Z,98374.16
2023-05-01T03:22:47.243Z,98372.19
2023-05-01T03:25:15.662Z,98381.47
2023-05-01T03:27:43.965Z,98376.63
2023-05-01T03:30:13.086Z,98380.38
2023-05-01T03:32:43.124Z,98380.81
2023-05-01T03:35:19.581Z,98368.38
2023-05-01T03:37:49.332Z,98380.84
2023-05-01T03:40:37.126Z,98365.34
2023-05-01T03:43:37.234Z,98366.06
2023-05-01T03:46:10.846Z,98346.72
2023-05-01T03:48:39.182Z,98348.91
2023-05-01T03:51:07.485Z,98350.16
2023-05-01T03:53:39.212Z,98353.78
2023-05-01T03:56:09.175Z,98353.00
2023-05-01T03:58:37.553Z,98357.13
2023-05-01T04:01:06.442Z,98356.25
2023-05-01T04:03:38.405Z,98354.53
2023-05-01T04:06:09.247Z,98349.56
2023-05-01T04:08:39.160Z,98356.47
2023-05-01T04:11:07.501Z,98351.63
2023-05-01T04:13:35.815Z,98357.22
2023-05-01T04:16:04.394Z,98349.25
2023-05-01T04:18:32.727Z,98343.56
2023-05-01T04:21:01.305Z,98344.47
2023-05-01T04:23:29.612Z,98340.13
2023-05-01T04:26:01.696Z,98345.00
2023-05-01T04:28:31.012Z,98344.56
2023-05-01T04:30:59.309Z,98342.09
2023-05-01T04:33:28.318Z,98333.78
2023-05-01T04:35:59.025Z,98334.50
2023-05-01T04:38:28.947Z,98335.00
2023-05-01T04:40:58.358Z,98321.66
2023-05-01T04:43:28.040Z,98326.06
2023-05-01T04:45:57.793Z,98331.16
2023-05-01T04:48:26.323Z,98340.88
2023-05-01T04:50:55.111Z,98331.75
2023-05-01T04:53:24.874Z,98342.91
2023-05-01T04:55:53.149Z,98337.88
2023-05-01T04:58:21.544Z,98342.69
2023-05-01T05:00:54.546Z,98343.19
2023-05-01T05:03:24.552Z,98346.13
2023-05-01T05:05:55.366Z,98339.53
2023-05-01T05:08:24.207Z,98349.56
2023-05-01T05:10:59.318Z,98354.03
2023-05-01T05:13:47.971Z,98357.00
2023-05-01T05:16:17.903Z,98349.38
2023-05-01T05:18:46.267Z,98348.59
2023-05-01T05:21:14.652Z,98366.44
2023-05-01T05:23:49.103Z,98359.56
2023-05-01T05:26:17.843Z,98367.59
2023-05-01T05:28:46.219Z,98360.38
2023-05-01T05:31:14.675Z,98359.47
2023-05-01T05:33:46.916Z,98353.78
2023-05-01T05:36:17.233Z,98350.53
2023-05-01T05:38:45.942Z,98350.75
2023-05-01T05:41:18.645Z,98348.00
2023-05-01T05:43:48.338Z,98333.50
2023-05-01T05:46:16.732Z,98339.94
2023-05-01T05:48:46.717Z,98336.44
2023-05-01T05:51:18.034Z,98335.75
2023-05-01T05:53:48.741Z,98323.53
2023-05-01T05:56:17.347Z,98321.00
2023-05-01T05:58:48.203Z,98322.88
2023-05-01T06:01:16.546Z,98335.44
2023-05-01T06:03:46.409Z,98339.44
2023-05-01T06:06:15.211Z,98343.19
2023-05-01T06:08:45.612Z,98344.47
2023-05-01T06:11:13.945Z,98341.81
2023-05-01T06:13:42.300Z,98345.81
2023-05-01T06:16:11.047Z,98335.81
2023-05-01T06:18:39.399Z,98342.31
2023-05-01T06:21:11.423Z,98343.72
2023-05-01T06:23:39.972Z,98339.19
2023-05-01T06:26:26.967Z,98336.38
2023-05-01T06:28:55.500Z,98330.97
2023-05-01T06:31:23.908Z,98333.00
2023-05-01T06:33:55.858Z,98341.31
2023-05-01T06:36:31.745Z,98342.03
2023-05-01T06:39:00.072Z,98331.56
2023-05-01T06:41:28.468Z,98338.97
2023-05-01T06:43:56.817Z,98336.25
2023-05-01T06:46:25.209Z,98344.00
2023-05-01T06:48:53.546Z,98338.41
2023-05-01T06:51:21.813Z,98340.41
2023-05-01T06:53:51.557Z,98345.09
2023-05-01T06:56:23.804Z,98344.88
2023-05-01T06:58:52.222Z,98348.84
2023-05-01T07:01:20.484Z,98353.59
2023-05-01T07:03:48.889Z,98360.28
2023-05-01T07:06:17.234Z,98361.91
2023-05-01T07:08:45.666Z,98365.44
2023-05-01T07:11:18.553Z,98361.09
2023-05-01T07:13:46.910Z,98359.06
2023-05-01T07:16:15.246Z,98358.84
2023-05-01T07:18:46.134Z,98365.00
2023-05-01T07:21:14.490Z,98348.28
2023-05-01T07:23:42.823Z,98354.63
2023-05-01T07:26:11.246Z,98359.47
2023-05-01T07:28:41.794Z,98358.03
2023-05-01T07:31:11.145Z,98359.09
2023-05-01T07:33:39.492Z,98357.09
2023-05-01T07:36:07.890Z,98355.81
2023-05-01T07:38:36.228Z,98354.88
2023-05-01T07:41:06.691Z,98348.41
2023-05-01T07:43:37.625Z,98346.84
2023-05-01T07:46:07.503Z,98350.75
2023-05-01T07:48:38.178Z,98338.97
2023-05-01T07:51:07.244Z,98339.47
2023-05-01T07:53:35.523Z,98334.53
2023-05-01T07:56:08.636Z,98325.28
2023-05-01T07:58:38.058Z,98325.16
2023-05-01T08:01:07.893Z,98330.59
2023-05-01T08:03:36.275Z,98323.81
2023-05-01T08:06:04.987Z,98327.13
2023-05-01T08:08:33.682Z,98328.41
2023-05-01T08:11:02.208Z,98332.53
2023-05-01T08:13:30.816Z,98336.09
2023-05-01T08:16:05.186Z,98327.09
2023-05-01T08:18:37.240Z,98332.63
2023-05-01T08:21:05.548Z,98338.63
2023-05-01T08:23:35.883Z,98341.06
2023-05-01T08:26:04.309Z,98338.84
2023-05-01T08:28:37.610Z,98341.03
2023-05-01T08:31:06.147Z,98342.94
2023-05-01T08:33:38.435Z,98336.16
2023-05-01T08:36:07.485Z,98335.31
2023-05-01T08:38:36.146Z,98337.78
2023-05-01T08:41:04.716Z,98316.56
2023-05-01T08:43:33.545Z,98336.72
2023-05-01T08:46:02.987Z,98334.00
2023-05-01T08:48:34.988Z,98337.44
2023-05-01T08:51:06.266Z,98334.84
2023-05-01T08:53:35.166Z,98332.84
2023-05-01T08:56:07.717Z,98326.84
2023-05-01T08:58:36.831Z,98331.59
2023-05-01T09:01:05.580Z,98336.47
2023-05-01T09:03:34.494Z,98330.06
2023-05-01T09:06:05.203Z,98335.88
2023-05-01T09:08:33.641Z,98331.41
2023-05-01T09:11:03.883Z,98330.19
2023-05-01T09:13:33.231Z,98336.97
2023-05-01T09:16:03.322Z,98344.72
2023-05-01T09:18:31.974Z,98332.44
2023-05-01T09:21:03.273Z,98339.31
2023-05-01T09:23:33.086Z,98332.28
2023-05-01T09:26:05.167Z,98328.84
2023-05-01T09:28:44.913Z,98330.53
2023-05-01T09:31:23.340Z,98334.13
2023-05-01T09:33:55.464Z,98305.13
2023-05-01T09:36:24.516Z,98331.28
2023-05-01T09:38:56.500Z,98334.78
2023-05-01T09:41:25.209Z,98330.50
2023-05-01T09:43:54.836Z,98329.97
2023-05-01T09:46:24.585Z,98333.13
2023-05-01T09:48:55.110Z,98327.22
2023-05-01T09:51:25.357Z,98321.84
2023-05-01T09:53:54.307Z,98336.13
2023-05-01T09:56:24.396Z,98339.06
2023-05-01T09:58:53.460Z,98331.19
2023-05-01T10:01:39.884Z,98330.66
2023-05-01T10:04:09.821Z,98325.25
2023-05-01T10:06:39.064Z,98324.75
2023-05-01T10:09:16.692Z,98329.13
2023-05-01T10:11:58.907Z,98327.72
2023-05-01T10:14:30.383Z,98335.41
2023-05-01T10:17:01.001Z,98330.50
2023-05-01T10:19:29.567Z,98328.03
2023-05-01T10:21:57.872Z,98326.69
2023-05-01T10:24:26.692Z,98322.00
2023-05-01T10:26:58.846Z,98324.94
2023-05-01T10:29:30.827Z,98324.22
2023-05-01T10:32:02.980Z,98323.69
2023-05-01T10:34:34.749Z,98325.56
2023-05-01T10:37:07.674Z,98329.91
2023-05-01T10:39:37.342Z,98314.88
2023-05-01T10:42:10.925Z,98322.72
2023-05-01T10:44:39.483Z,98322.25
2023-05-01T10:47:45.050Z,98323.22
2023-05-01T10:50:15.773Z,98322.94
2023-05-01T10:53:17.615Z,98320.06
2023-05-01T10:55:47.400Z,98307.25
2023-05-01T10:58:56.290Z,98311.69
2023-05-01T11:01:32.981Z,98308.03
2023-05-01T11:04:04.025Z,98310.59
2023-05-01T11:06:33.537Z,98304.41
2023-05-01T11:09:02.751Z,98311.09
2023-05-01T11:11:50.332Z,98312.88
2023-05-01T11:14:20.148Z,98307.06
2023-05-01T11:16:49.407Z,98311.03
2023-05-01T11:19:49.081Z,98311.34
2023-05-01T11:22:18.293Z,98294.09
2023-05-01T11:24:47.982Z,98302.75
2023-05-01T11:27:18.031Z,98299.78
2023-05-01T11:29:51.733Z,98301.31
2023-05-01T11:32:27.068Z,98297.09
2023-05-01T11:34:55.937Z,98289.25
2023-05-01T11:37:43.078Z,98290.31
2023-05-01T11:40:22.363Z,98293.75
2023-05-01T11:42:51.655Z,98283.97
2023-05-01T11:45:21.410Z,98293.53
2023-05-01T11:47:50.160Z,98297.75
2023-05-01T11:50:18.705Z,98298.63
2023-05-01T11:52:49.344Z,98294.50
2023-05-01T11:55:17.810Z,98300.84
2023-05-01T11:57:50.583Z,98290.25
2023-05-01T12:00:29.982Z,98290.44
2023-05-01T12:03:03.859Z,98286.97
2023-05-01T12:05:37.078Z,98292.25
2023-05-01T12:08:14.296Z,98283.06
2023-05-01T12:10:44.406Z,98288.00
2023-05-01T12:13:14.452Z,98282.91
2023-05-01T12:15:48.260Z,98289.94
2023-05-01T12:18:17.888Z,98282.88
2023-05-01T12:20:48.638Z,98267.53
2023-05-01T12:23:17.553Z,98269.09
2023-05-01T12:25:47.464Z,98269.81
2023-05-01T12:28:18.161Z,98278.38
2023-05-01T12:30:49.193Z,98277.50
2023-05-01T12:33:19.268Z,98286.72
2023-05-01T12:35:49.752Z,98285.75
2023-05-01T12:38:19.383Z,98291.38
2023-05-01T12:40:53.173Z,98289.19
2023-05-01T12:43:23.383Z,98285.81
2023-05-01T12:45:54.720Z,98289.63
2023-05-01T12:48:23.825Z,98290.75
2023-05-01T12:50:54.872Z,98284.91
2023-05-01T12:53:24.241Z,98279.75
2023-05-01T12:55:54.596Z,98289.00
2023-05-01T12:58:25.917Z,98285.16
2023-05-01T13:00:56.401Z,98277.03
2023-05-01T13:03:26.034Z,98278.34
2023-05-01T13:05:56.416Z,98275.56
2023-05-01T13:08:29.456Z,98270.09
2023-05-01T13:10:59.376Z,98278.97
2023-05-01T13:13:31.853Z,98273.06
2023-05-01T13:16:12.550Z,98254.16
2023-05-01T13:18:46.129Z,98264.41
2023-05-01T13:21:16.369Z,98256.34
2023-05-01T13:23:54.354Z,98260.59
2023-05-01T13:26:31.502Z,98264.31
2023-05-01T13:29:01.795Z,98257.38
2023-05-01T13:31:31.882Z,98266.91
2023-05-01T13:34:02.911Z,98250.53
2023-05-01T13:36:33.799Z,98252.41
2023-05-01T13:39:02.287Z,98246.78
2023-05-01T13:41:30.907Z,98259.22
2023-05-01T13:44:01.461Z,98264.75
2023-05-01T13:46:31.160Z,98258.03
2023-05-01T13:49:04.677Z,98268.72
2023-05-01T13:51:34.116Z,98260.81
2023-05-01T13:54:03.463Z,98259.75
2023-05-01T13:56:32.854Z,98247.84
2023-05-01T13:59:03.466Z,98251.34
2023-05-01T14:01:37.292Z,98240.50
2023-05-01T14:04:10.094Z,98240.41
2023-05-01T14:06:43.702Z,98226.31
2023-05-01T14:09:12.465Z,98249.97
2023-05-01T14:11:46.515Z,98230.38
2023-05-01T14:14:17.207Z,98230.22
2023-05-01T14:16:50.090Z,98236.00
2023-05-01T14:19:19.027Z,98224.31
2023-05-01T14:21:47.866Z,98232.94
2023-05-01T14:24:17.798Z,98225.59
2023-05-01T14:26:48.665Z,98224.81
2023-05-01T14:29:23.711Z,98237.78
2023-05-01T14:31:55.390Z,98229.16
2023-05-01T14:34:23.974Z,98249.06
2023-05-01T14:36:52.265Z,98248.31
2023-05-01T14:39:20.655Z,98250.25
2023-05-01T14:41:49.280Z,98247.19
2023-05-01T14:44:20.780Z,98247.22
2023-05-01T14:46:51.696Z,98251.00
2023-05-01T14:49:24.319Z,98256.75
2023-05-01T14:51:53.761Z,98262.28
2023-05-01T14:54:24.056Z,98259.31
2023-05-01T14:56:52.444Z,98264.31
2023-05-01T14:59:22.809Z,98267.38
2023-05-01T15:01:51.188Z,98247.66
2023-05-01T15:04:21.290Z,98266.31
2023-05-01T15:06:50.790Z,98273.44
2023-05-01T15:09:19.153Z,98269.09
2023-05-01T15:11:47.453Z,98269.06
2023-05-01T15:14:15.830Z,98264.25
2023-05-01T15:16:44.178Z,98261.56
2023-05-01T15:19:12.512Z,98260.56
2023-05-01T15:21:42.180Z,98258.31
2023-05-01T15:24:11.434Z,98249.72
2023-05-01T15:26:39.826Z,98257.13
2023-05-01T15:29:08.165Z,98258.88
2023-05-01T15:31:36.618Z,98254.69
2023-05-01T15:34:05.313Z,98260.25
2023-05-01T15:36:34.452Z,98255.28
2023-05-01T15:39:06.017Z,98263.81
2023-05-01T15:41:34.328Z,98264.34
2023-05-01T15:44:05.825Z,98263.25
2023-05-01T15:46:34.247Z,98268.22
2023-05-01T15:49:02.672Z,98270.25
2023-05-01T15:51:32.297Z,98270.78
2023-05-01T15:54:02.546Z,98285.06
2023-05-01T15:56:35.460Z,98276.69
2023-05-01T15:59:04.691Z,98289.47
2023-05-01T16:01:33.719Z,98290.06
2023-05-01T16:04:04.101Z,98294.47
2023-05-01T16:06:36.221Z,98304.84
2023-05-01T16:09:06.025Z,98305.09
2023-05-01T16:11:36.636Z,98312.91
2023-05-01T16:14:05.155Z,98315.41
2023-05-01T16:16:34.702Z,98316.41
2023-05-01T16:19:03.173Z,98320.03
2023-05-01T16:21:31.634Z,98325.34
2023-05-01T16:24:02.902Z,98320.22
2023-05-01T16:26:35.844Z,98333.31
2023-05-01T16:29:06.595Z,98327.41
2023-05-01T16:31:39.662Z,98338.03
2023-05-01T16:34:13.270Z,98350.22
2023-05-01T16:36:42.508Z,98341.75
2023-05-01T16:39:12.421Z,98337.81
2023-05-01T16:41:46.129Z,98351.88
2023-05-01T16:44:16.103Z,98356.56
2023-05-01T16:46:47.980Z,98355.59
2023-05-01T16:49:16.640Z,98329.25
2023-05-01T16:51:45.827Z,98356.69
2023-05-01T16:54:15.025Z,98352.38
2023-05-01T16:56:46.935Z,98332.72
2023-05-01T16:59:15.239Z,98351.97
2023-05-01T17:01:43.556Z,98334.56
2023-05-01T17:04:12.116Z,98341.03
2023-05-01T17:06:40.523Z,98346.03
2023-05-01T17:09:08.824Z,98361.47
2023-05-01T17:11:37.144Z,98355.75
2023-05-01T17:14:06.812Z,98356.81
2023-05-01T17:16:35.141Z,98359.25
2023-05-01T17:19:08.684Z,98370.97
2023-05-01T17:21:37.324Z,98355.34
2023-05-01T17:24:07.960Z,98367.59
2023-05-01T17:26:36.636Z,98357.88
2023-05-01T17:29:06.323Z,98365.16
2023-05-01T17:31:35.487Z,98336.19
2023-05-01T17:34:03.782Z,98367.53
2023-05-01T17:36:32.719Z,98369.91
2023-05-01T17:39:01.407Z,98383.16
2023-05-01T17:41:29.990Z,98389.47
2023-05-01T17:43:58.311Z,98391.88
2023-05-01T17:46:28.061Z,98398.69
2023-05-01T17:48:56.351Z,98406.56
2023-05-01T17:51:24.946Z,98408.91
2023-05-01T17:53:53.483Z,98400.63
2023-05-01T17:56:21.703Z,98399.72
2023-05-01T17:58:49.953Z,98402.28
2023-05-01T18:01:18.261Z,98404.16
2023-05-01T18:03:48.989Z,98406.78
2023-05-01T18:06:17.846Z,98411.13
2023-05-01T18:08:46.293Z,98412.25
2023-05-01T18:11:14.700Z,98409.81
2023-05-01T18:13:47.148Z,98415.84
2023-05-01T18:16:15.496Z,98410.31
2023-05-01T18:18:48.224Z,98417.75
2023-05-01T18:21:18.851Z,98433.00
2023-05-01T18:23:48.778Z,98430.22
2023-05-01T18:26:19.424Z,98435.94
2023-05-01T18:28:48.041Z,98425.34
2023-05-01T18:31:16.323Z,98428.44
2023-05-01T18:33:44.583Z,98425.22
2023-05-01T18:36:16.337Z,98439.88
2023-05-01T18:38:44.634Z,98435.75
2023-05-01T18:41:12.993Z,98440.13
2023-05-01T18:43:41.336Z,98442.06
2023-05-01T18:46:09.674Z,98443.16
2023-05-01T18:48:40.131Z,98442.41
2023-05-01T18:51:09.763Z,98453.94
2023-05-01T18:53:39.464Z,98447.69
2023-05-01T18:56:09.412Z,98422.41
2023-05-01T18:58:39.705Z,98445.53
2023-05-01T19:01:08.058Z,98434.94
2023-05-01T19:03:39.399Z,98464.59
2023-05-01T19:06:10.346Z,98479.44
2023-05-01T19:08:40.102Z,98488.78
2023-05-01T19:11:10.494Z,98502.91
2023-05-01T19:13:38.849Z,98512.69
2023-05-01T19:16:07.234Z,98514.19
2023-05-01T19:18:38.307Z,98518.13
2023-05-01T19:21:06.718Z,98518.13
2023-05-01T19:23:37.585Z,98514.84
2023-05-01T19:26:07.965Z,98513.59
2023-05-01T19:28:38.496Z,98522.84
2023-05-01T19:31:07.656Z,98528.09
2023-05-01T19:33:36.498Z,98521.56
2023-05-01T19:36:05.163Z,98512.72
2023-05-01T19:38:33.806Z,98516.25
2023-05-01T19:41:02.134Z,98518.72
2023-05-01T19:43:34.259Z,98525.56
2023-05-01T19:46:05.678Z,98522.03
2023-05-01T19:48:34.178Z,98519.13
2023-05-01T19:51:02.429Z,98525.38
2023-05-01T19:53:32.921Z,98512.22
2023-05-01T19:56:01.193Z,98507.41
2023-05-01T19:58:29.449Z,98513.53
2023-05-01T20:01:02.310Z,98518.97
2023-05-01T20:03:30.770Z,98519.97
2023-05-01T20:05:59.296Z,98531.72
2023-05-01T20:08:27.729Z,98527.59
2023-05-01T20:10:56.794Z,98526.78
2023-05-01T20:13:25.124Z,98527.84
2023-05-01T20:15:53.442Z,98535.81
2023-05-01T20:18:25.139Z,98549.03
2023-05-01T20:20:55.786Z,98555.56
2023-05-01T20:23:24.241Z,98565.06
2023-05-01T20:25:53.332Z,98576.88
2023-05-01T20:28:23.700Z,98560.84
2023-05-01T20:30:52.209Z,98562.88
2023-05-01T20:33:20.520Z,98571.47
2023-05-01T20:35:51.200Z,98578.41
2023-05-01T20:38:19.551Z,98583.13
2023-05-01T20:40:50.682Z,98592.19
2023-05-01T20:43:19.067Z,98593.03
2023-05-01T20:45:47.769Z,98601.97
2023-05-01T20:48:16.213Z,98603.88
2023-05-01T20:50:48.199Z,98608.72
2023-05-01T20:53:18.939Z,98603.06
2023-05-01T20:55:47.306Z,98595.75
2023-05-01T20:58:15.599Z,98595.41
2023-05-01T21:00:43.999Z,98598.81
2023-05-01T21:03:14.531Z,98600.47
2023-05-01T21:05:42.914Z,98600.00
2023-05-01T21:08:13.488Z,98604.22
2023-05-01T21:10:43.254Z,98616.94
2023-05-01T21:13:12.052Z,98615.53
2023-05-01T21:15:41.997Z,98615.28
2023-05-01T21:18:12.154Z,98619.47
2023-05-01T21:20:40.655Z,98622.09
2023-05-01T21:23:09.084Z,98619.28
2023-05-01T21:25:37.431Z,98624.94
2023-05-01T21:28:08.093Z,98614.69
2023-05-01T21:30:38.761Z,98621.03
2023-05-01T21:33:09.201Z,98617.50
2023-05-01T21:35:37.660Z,98623.97
2023-05-01T21:38:05.965Z,98618.56
2023-05-01T21:40:37.960Z,98628.88
2023-05-01T21:43:20.379Z,98624.88
2023-05-01T21:45:49.143Z,98629.47
2023-05-01T21:48:20.309Z,98624.09
2023-05-01T21:50:50.054Z,98629.66
2023-05-01T21:53:20.798Z,98631.06
2023-05-01T21:55:49.074Z,98624.00
2023-05-01T21:58:18.914Z,98638.84
2023-05-01T22:02:42.209Z,98626.53
2023-05-01T22:05:11.453Z,98625.25
2023-05-01T22:07:43.706Z,98635.50
2023-05-01T22:10:17.062Z,98639.53
2023-05-01T22:12:46.440Z,98628.53
2023-05-01T22:15:16.092Z,98635.41
2023-05-01T22:17:46.432Z,98625.47
2023-05-01T22:20:15.046Z,98636.66
2023-05-01T22:22:43.808Z,98640.78
2023-05-01T22:25:13.142Z,98636.97
2023-05-01T22:27:41.755Z,98614.56
2023-05-01T22:30:11.060Z,98630.81
2023-05-01T22:32:39.662Z,98635.25
2023-05-01T22:35:11.875Z,98642.34
2023-05-01T22:37:40.180Z,98643.19
2023-05-01T22:40:09.471Z,98646.72
2023-05-01T22:42:37.740Z,98648.59
2023-05-01T22:45:08.919Z,98663.94
2023-05-01T22:47:37.222Z,98660.34
2023-05-01T22:50:06.254Z,98659.31
2023-05-01T22:52:36.371Z,98666.97
2023-05-01T22:55:05.411Z,98670.34
2023-05-01T22:57:33.717Z,98662.88
2023-05-01T23:00:02.353Z,98653.06
2023-05-01T23:02:34.109Z,98662.03
2023-05-01T23:05:02.430Z,98655.31
2023-05-01T23:07:33.071Z,98655.88
2023-05-01T23:10:05.613Z,98654.22
2023-05-01T23:12:34.047Z,98663.66
2023-05-01T23:15:02.664Z,98668.75
2023-05-01T23:17:36.025Z,98673.66
2023-05-01T23:20:08.254Z,98668.03
2023-05-01T23:22:37.985Z,98655.63
2023-05-01T23:25:08.734Z,98659.72
2023-05-01T23:27:42.870Z,98650.38
2023-05-01T23:30:13.012Z,98656.84
2023-05-01T23:32:41.803Z,98654.06
2023-05-01T23:35:13.802Z,98662.81
2023-05-01T23:37:42.799Z,98664.47
2023-05-01T23:40:12.751Z,98665.03
2023-05-01T23:42:41.333Z,98658.03
2023-05-01T23:45:10.090Z,98662.84
2023-05-01T23:47:40.718Z,98668.91
2023-05-01T23:50:09.897Z,98668.75
2023-05-01T23:52:38.174Z,98668.34
2023-05-01T23:55:06.881Z,98688.00
2023-05-01T23:57:36.512Z,98674.72
